Time;durP1;ratioP1;P1;durP2;ratioP2;P2;SDS_P1;SDS_P2;PMS_P1;PMS_P2;Temp;Humidity;BMP_temperature;BMP_pressure;BME280_temperature;BME280_humidity;BME280_pressure;Samples;Min_cycle;Max_cycle;Signal;HPM_P1;HPM_P2
2024/04/13 00:00:10;;;;;;;;;;;;;;;-144.99;100.00;52517.41;5394676;26;20340;-64
2024/04/13 00:02:40;;;;;;;;;;;;;;;-144.99;100.00;52513.31;5408082;26;19935;-63
2024/04/13 00:05:06;;;;;;;;;;;;;;;-144.99;100.00;52541.84;5395272;26;19945;-63
2024/04/13 00:07:35;;;;;;;;;;;;;;;-144.99;100.00;52525.56;5409476;26;19935;-63
2024/04/13 00:10:02;;;;;;;;;;;;;;;-144.99;100.00;52527.59;5405313;26;19937;-63
2024/04/13 00:12:34;;;;;;;;;;;;;;;-144.99;100.00;52513.31;5407149;26;19935;-70
2024/04/13 00:15:00;;;;;;;;;;;;;;;-144.99;100.00;52497.00;5406843;26;19954;-72
2024/04/13 00:17:31;;;;;;;;;;;;;;;-144.99;100.00;52537.78;5405808;26;19928;-72
2024/04/13 00:19:57;;;;;;;;;;;;;;;-144.99;100.00;52521.47;5402899;26;19929;-72
2024/04/13 00:22:26;;;;;;;;;;;;;;;-144.99;100.00;52488.84;5406626;26;19933;-71
2024/04/13 00:24:52;;;;;;;;;;;;;;;-144.99;100.00;52509.25;5408414;26;19929;-63
2024/04/13 00:27:23;;;;;;;;;;;;;;;-144.99;100.00;52505.16;5410224;26;19957;-64
2024/04/13 00:29:52;;;;;;;;;;;;;;;-144.99;100.00;52497.00;5406616;26;19978;-64
2024/04/13 00:32:20;;;;;;;;;;;;;;;-144.99;100.00;52492.94;5408276;26;19940;-63
2024/04/13 00:34:47;;;;;;;;;;;;;;;-144.99;100.00;52525.56;5408872;26;20075;-65
2024/04/13 00:37:16;;;;;;;;;;;;;;;-144.99;100.00;52492.94;5409893;26;19929;-64
2024/04/13 00:39:41;;;;;;;;;;;;;;;-144.99;100.00;52484.78;5405859;26;20024;-64
2024/04/13 00:42:10;;;;;;;;;;;;;;;-144.99;100.00;52521.47;5407996;26;20130;-61
2024/04/13 00:44:36;;;;;;;;;;;;;;;-144.99;100.00;52525.56;5037348;26;10000034;-63
2024/04/13 00:47:09;;;;;;;;;;;;;;;-144.99;100.00;52517.41;5410406;26;19993;-63
2024/04/13 00:49:36;;;;;;;;;;;;;;;-144.99;100.00;52517.41;5407522;26;19965;-65
2024/04/13 00:52:06;;;;;;;;;;;;;;;-144.99;100.00;52509.25;5407617;26;19940;-65
2024/04/13 00:54:34;;;;;;;;;;;;;;;-144.99;100.00;52490.91;5407723;26;19929;-64
2024/04/13 00:57:03;;;;;;;;;;;;;;;-144.99;100.00;52558.16;5409625;26;19936;-64
2024/04/13 00:59:29;;;;;;;;;;;;;;;-144.99;100.00;52488.84;5407183;26;20574;-64
2024/04/13 01:01:59;;;;;;;;;;;;;;;-144.99;100.00;52509.25;5409827;26;19944;-64
2024/04/13 01:04:28;;;;;;;;;;;;;;;-144.99;100.00;52550.00;5400335;26;20401;-64
2024/04/13 01:06:57;;;;;;;;;;;;;;;-144.99;100.00;52533.69;5410502;26;19929;-64
2024/04/13 01:09:23;;;;;;;;;;;;;;;-144.99;100.00;52525.56;5410805;26;20325;-64
2024/04/13 01:11:51;;;;;;;;;;;;;;;-144.99;100.00;52501.09;5409480;26;19937;-64
2024/04/13 01:14:18;;;;;;;;;;;;;;;-144.99;100.00;52484.78;5410574;26;19929;-63
2024/04/13 01:16:46;;;;;;;;;;;;;;;-144.99;100.00;52533.69;5409008;26;19953;-63
2024/04/13 01:19:12;;;;;;;;;;;;;;;-144.99;100.00;52533.69;5410109;26;20355;-63
2024/04/13 01:21:43;;;;;;;;;;;;;;;-144.99;100.00;52497.00;5408897;26;19929;-63
2024/04/13 01:24:12;;;;;;;;;;;;;;;-144.99;100.00;52478.66;5395540;26;19933;-63
2024/04/13 01:26:41;;;;;;;;;;;;;;;-144.99;100.00;52505.16;5409671;26;20626;-63
2024/04/13 01:29:08;;;;;;;;;;;;;;;-144.99;100.00;52517.41;5409639;26;20025;-63
2024/04/13 01:31:37;;;;;;;;;;;;;;;-144.99;100.00;52521.47;5410066;26;20040;-63
2024/04/13 01:34:03;;;;;;;;;;;;;;;-144.99;100.00;52509.25;5409428;26;19964;-65
2024/04/13 01:36:37;;;;;;;;;;;;;;;-144.99;100.00;52480.72;5409408;26;19936;-64
2024/04/13 01:39:04;;;;;;;;;;;;;;;-144.99;100.00;52517.41;5410280;26;19940;-62
2024/04/13 01:41:35;;;;;;;;;;;;;;;-144.99;100.00;52486.81;5408761;26;19937;-62
2024/04/13 01:44:01;;;;;;;;;;;;;;;-144.99;100.00;52484.78;5408636;26;19948;-64
2024/04/13 01:46:29;;;;;;;;;;;;;;;-144.99;100.00;52533.69;5409976;26;19940;-65
2024/04/13 01:48:55;;;;;;;;;;;;;;;-144.99;100.00;52503.13;5410153;26;20346;-63
2024/04/13 01:51:24;;;;;;;;;;;;;;;-144.99;100.00;52456.25;5409209;26;19937;-65
2024/04/13 01:53:50;;;;;;;;;;;;;;;-144.99;100.00;52468.47;5410021;26;19936;-65
2024/04/13 01:56:19;;;;;;;;;;;;;;;-144.99;100.00;52492.94;5409569;26;20390;-66
2024/04/13 01:58:47;;;;;;;;;;;;;;;-144.99;100.00;52492.94;5409064;26;19936;-66
2024/04/13 02:01:16;;;;;;;;;;;;;;;-144.99;100.00;52523.50;5409274;26;19957;-66
2024/04/13 02:03:42;;;;;;;;;;;;;;;-144.99;100.00;52521.47;5409070;26;19936;-66
2024/04/13 02:06:11;;;;;;;;;;;;;;;-144.99;100.00;52507.19;5395049;26;19941;-66
2024/04/13 02:08:37;;;;;;;;;;;;;;;-144.99;100.00;52476.63;5409380;26;19929;-65
2024/04/13 02:11:06;;;;;;;;;;;;;;;-144.99;100.00;52501.09;5409045;26;19961;-66
2024/04/13 02:13:32;;;;;;;;;;;;;;;-144.99;100.00;52501.09;5406860;26;19936;-66
2024/04/13 02:16:03;;;;;;;;;;;;;;;-144.99;100.00;52497.00;5408681;26;20278;-66
2024/04/13 02:18:30;;;;;;;;;;;;;;;-144.99;100.00;52517.41;5408479;26;20332;-64
2024/04/13 02:20:58;;;;;;;;;;;;;;;-144.99;100.00;52480.72;5407249;26;19936;-64
2024/04/13 02:23:24;;;;;;;;;;;;;;;-144.99;100.00;52497.00;5407412;26;19929;-63
2024/04/13 02:25:53;;;;;;;;;;;;;;;-144.99;100.00;52519.44;5407358;26;20006;-64
2024/04/13 02:28:19;;;;;;;;;;;;;;;-144.99;100.00;52497.00;5407866;26;19983;-64
2024/04/13 02:30:48;;;;;;;;;;;;;;;-144.99;100.00;52521.47;5410253;26;20457;-65
2024/04/13 02:33:16;;;;;;;;;;;;;;;-144.99;100.00;52521.47;5411166;26;19929;-64
2024/04/13 02:35:45;;;;;;;;;;;;;;;-144.99;100.00;52497.00;5410785;26;20030;-64
2024/04/13 02:38:11;;;;;;;;;;;;;;;-144.99;100.00;52492.94;5411825;26;19928;-64
2024/04/13 02:40:39;;;;;;;;;;;;;;;-144.99;100.00;52490.91;5410885;26;19998;-64
2024/04/13 02:43:05;;;;;;;;;;;;;;;-144.99;100.00;52503.13;5410572;26;20458;-64
2024/04/13 02:45:33;;;;;;;;;;;;;;;-144.99;100.00;52511.28;5410886;26;19937;-64
2024/04/13 02:47:59;;;;;;;;;;;;;;;-144.99;100.00;52505.16;5410993;26;19929;-64
2024/04/13 02:50:30;;;;;;;;;;;;;;;-144.99;100.00;52492.94;5410683;26;19929;-63
2024/04/13 02:52:57;;;;;;;;;;;;;;;-144.99;100.00;52488.84;5410356;26;20275;-64
2024/04/13 02:55:26;;;;;;;;;;;;;;;-144.99;100.00;52505.16;5411777;26;20227;-64
2024/04/13 02:57:51;;;;;;;;;;;;;;;-144.99;100.00;52531.66;5413897;26;19936;-64
2024/04/13 03:00:20;;;;;;;;;;;;;;;-144.99;100.00;52525.56;5413650;26;19945;-64
2024/04/13 03:02:46;;;;;;;;;;;;;;;-144.99;100.00;52476.63;5414205;26;19940;-64
2024/04/13 03:05:14;;;;;;;;;;;;;;;-144.99;100.00;52523.50;5414244;26;20323;-63
2024/04/13 03:07:44;;;;;;;;;;;;;;;-144.99;100.00;52492.94;5414330;26;19936;-64
2024/04/13 03:10:13;;;;;;;;;;;;;;;-144.99;100.00;52525.56;5401571;26;20287;-64
2024/04/13 03:12:41;;;;;;;;;;;;;;;-144.99;100.00;52501.09;5404979;26;19929;-63
2024/04/13 03:15:07;;;;;;;;;;;;;;;-144.99;100.00;52486.81;5403413;26;20270;-64
2024/04/13 03:17:36;;;;;;;;;;;;;;;-144.99;100.00;52501.09;5414006;26;19929;-63
2024/04/13 03:20:05;;;;;;;;;;;;;;;-144.99;100.00;52488.84;5413281;26;19929;-65
2024/04/13 03:22:34;;;;;;;;;;;;;;;-144.99;100.00;52525.56;5411999;26;20351;-64
2024/04/13 03:25:05;;;;;;;;;;;;;;;-144.99;100.00;52519.44;5411970;26;19929;-64
2024/04/13 03:27:35;;;;;;;;;;;;;;;-144.99;100.00;52501.09;5412796;26;19979;-64
2024/04/13 03:30:01;;;;;;;;;;;;;;;-144.99;100.00;52497.00;5412516;26;20457;-64
2024/04/13 03:32:29;;;;;;;;;;;;;;;-144.99;100.00;52511.28;5412558;26;19941;-64
2024/04/13 03:34:55;;;;;;;;;;;;;;;-144.99;100.00;52488.84;5412589;26;19948;-64
2024/04/13 03:37:24;;;;;;;;;;;;;;;-144.99;100.00;52527.59;5413208;26;19981;-64
2024/04/13 03:39:52;;;;;;;;;;;;;;;-144.99;100.00;52503.13;5411794;26;19936;-64
2024/04/13 03:42:25;;;;;;;;;;;;;;;-144.99;100.00;52472.56;5412954;26;19936;-64
2024/04/13 03:44:50;;;;;;;;;;;;;;;-144.99;100.00;52501.09;5412337;26;19957;-63
2024/04/13 03:47:19;;;;;;;;;;;;;;;-144.99;100.00;52517.41;5411915;26;19984;-63
2024/04/13 03:49:45;;;;;;;;;;;;;;;-144.99;100.00;52499.06;5411666;26;19933;-63
2024/04/13 03:52:13;;;;;;;;;;;;;;;-144.99;100.00;52470.50;5411583;26;20400;-63
2024/04/13 03:54:41;;;;;;;;;;;;;;;-144.99;100.00;52501.09;5411216;26;20352;-63
2024/04/13 03:57:11;;;;;;;;;;;;;;;-144.99;100.00;52478.66;5413884;26;19946;-62
2024/04/13 03:59:39;;;;;;;;;;;;;;;-144.99;100.00;52497.00;5408056;26;19941;-62
2024/04/13 04:02:08;;;;;;;;;;;;;;;-144.99;100.00;52505.16;5410947;26;19929;-66
2024/04/13 04:04:34;;;;;;;;;;;;;;;-144.99;100.00;52505.16;5409884;26;20232;-65
2024/04/13 04:07:02;;;;;;;;;;;;;;;-144.99;100.00;52505.16;5410075;26;19997;-65
2024/04/13 04:09:28;;;;;;;;;;;;;;;-144.99;100.00;52492.94;5410571;26;19933;-65
2024/04/13 04:11:57;;;;;;;;;;;;;;;-144.99;100.00;52511.28;5410065;26;19951;-66
2024/04/13 04:14:23;;;;;;;;;;;;;;;-144.99;100.00;52494.97;5410144;26;19929;-66
2024/04/13 04:16:55;;;;;;;;;;;;;;;-144.99;100.00;52529.63;5409941;26;19928;-67
2024/04/13 04:19:22;;;;;;;;;;;;;;;-144.99;100.00;52529.63;5410763;26;19929;-66
2024/04/13 04:21:50;;;;;;;;;;;;;;;-144.99;100.00;52513.31;5411243;26;19998;-64
2024/04/13 04:24:16;;;;;;;;;;;;;;;-144.99;100.00;52545.94;5413109;26;19928;-63
2024/04/13 04:26:45;;;;;;;;;;;;;;;-144.99;100.00;52550.00;5412667;26;19933;-63
2024/04/13 04:29:11;;;;;;;;;;;;;;;-144.99;100.00;52517.41;5411381;26;20363;-73
2024/04/13 04:31:41;;;;;;;;;;;;;;;-144.99;100.00;52503.13;5408222;26;19997;-71
2024/04/13 04:34:09;;;;;;;;;;;;;;;-144.99;100.00;52488.84;5407479;26;19929;-71
2024/04/13 04:36:39;;;;;;;;;;;;;;;-144.99;100.00;52505.16;5409221;26;19929;-71
2024/04/13 04:39:05;;;;;;;;;;;;;;;-144.99;100.00;52499.06;5410248;26;20344;-70
2024/04/13 04:41:34;;;;;;;;;;;;;;;-144.99;100.00;52501.09;5408604;26;19929;-70
2024/04/13 04:44:00;;;;;;;;;;;;;;;-144.99;100.00;52509.25;5410074;26;20002;-63
2024/04/13 04:46:28;;;;;;;;;;;;;;;-144.99;100.00;52513.31;5411502;26;19940;-65
2024/04/13 04:48:54;;;;;;;;;;;;;;;-144.99;100.00;52562.25;5410996;26;19965;-65
2024/04/13 04:51:26;;;;;;;;;;;;;;;-144.99;100.00;52468.47;5409895;26;20227;-62
2024/04/13 04:53:52;;;;;;;;;;;;;;;-144.99;100.00;52505.16;5410223;26;19941;-62
2024/04/13 04:56:21;;;;;;;;;;;;;;;-144.99;100.00;52505.16;5410784;26;19929;-62
2024/04/13 04:58:47;;;;;;;;;;;;;;;-144.99;100.00;52488.84;5410962;26;20426;-62
2024/04/13 05:01:15;;;;;;;;;;;;;;;-144.99;100.00;52456.25;5398243;26;19936;-62
2024/04/13 05:03:41;;;;;;;;;;;;;;;-144.99;100.00;52480.72;5411045;26;19933;-61
2024/04/13 05:06:10;;;;;;;;;;;;;;;-144.99;100.00;52509.25;5409180;26;19979;-64
2024/04/13 05:08:38;;;;;;;;;;;;;;;-144.99;100.00;52497.00;5409385;26;19929;-64
2024/04/13 05:11:07;;;;;;;;;;;;;;;-144.99;100.00;52480.72;5407980;26;19941;-67
2024/04/13 05:13:33;;;;;;;;;;;;;;;-144.99;100.00;52529.63;5406592;26;19929;-67
2024/04/13 05:16:01;;;;;;;;;;;;;;;-144.99;100.00;52503.13;5409314;26;20010;-67
2024/04/13 05:18:27;;;;;;;;;;;;;;;-144.99;100.00;52458.28;5409977;26;19929;-67
2024/04/13 05:20:55;;;;;;;;;;;;;;;-144.99;100.00;52497.00;5409213;26;19953;-67
2024/04/13 05:23:21;;;;;;;;;;;;;;;-144.99;100.00;52505.16;5409144;26;19944;-68
2024/04/13 05:25:52;;;;;;;;;;;;;;;-144.99;100.00;52490.91;5408106;26;20301;-67
2024/04/13 05:28:20;;;;;;;;;;;;;;;-144.99;100.00;52480.72;5408802;26;19929;-67
2024/04/13 05:30:56;;;;;;;;;;;;;;;-144.99;100.00;52464.41;5408425;26;20469;-67
2024/04/13 05:33:22;;;;;;;;;;;;;;;-144.99;100.00;52439.94;5408053;26;19929;-67
2024/04/13 05:35:51;;;;;;;;;;;;;;;-144.99;100.00;52456.25;5408500;26;19929;-67
2024/04/13 05:38:17;;;;;;;;;;;;;;;-144.99;100.00;52468.47;5409368;26;19940;-67
2024/04/13 05:40:45;;;;;;;;;;;;;;;-144.99;100.00;52460.31;5407604;26;20327;-65
2024/04/13 05:43:16;;;;;;;;;;;;;;;-144.99;100.00;52458.28;5408195;26;19936;-67
2024/04/13 05:45:44;;;;;;;;;;;;;;;-144.99;100.00;52464.41;5409024;26;20003;-67
2024/04/13 05:48:10;;;;;;;;;;;;;;;-144.99;100.00;52476.63;5409324;26;19936;-67
2024/04/13 05:50:39;;;;;;;;;;;;;;;-144.99;100.00;52476.63;5408537;26;19948;-67
2024/04/13 05:53:05;;;;;;;;;;;;;;;-144.99;100.00;52503.13;5408548;26;19929;-66
2024/04/13 05:55:33;;;;;;;;;;;;;;;-144.99;100.00;52499.06;5408316;26;20391;-66
2024/04/13 05:57:59;;;;;;;;;;;;;;;-144.99;100.00;52456.25;5406849;26;19928;-66
2024/04/13 06:00:31;;;;;;;;;;;;;;;-144.99;100.00;52486.81;5408087;26;19935;-64
2024/04/13 06:02:57;;;;;;;;;;;;;;;-144.99;100.00;52480.72;5407992;26;19939;-68
2024/04/13 06:05:26;;;;;;;;;;;;;;;-144.99;100.00;52472.56;5411001;26;20393;-65
2024/04/13 06:07:52;;;;;;;;;;;;;;;-144.99;100.00;52488.84;5411740;26;20371;-64
2024/04/13 06:10:21;;;;;;;;;;;;;;;-144.99;100.00;52452.16;5411074;26;19998;-65
2024/04/13 06:12:48;;;;;;;;;;;;;;;-144.99;100.00;52441.97;5409853;26;20022;-65
2024/04/13 06:15:17;;;;;;;;;;;;;;;-144.99;100.00;52488.84;5411176;26;20121;-64
2024/04/13 06:17:46;;;;;;;;;;;;;;;-144.99;100.00;52460.31;5411763;26;19929;-64
2024/04/13 06:20:14;;;;;;;;;;;;;;;-144.99;100.00;52550.00;5411272;26;19929;-69
2024/04/13 06:22:41;;;;;;;;;;;;;;;-144.99;100.00;52488.84;5411749;26;19941;-69
2024/04/13 06:25:10;;;;;;;;;;;;;;;-144.99;100.00;52458.28;5411179;26;19931;-69
2024/04/13 06:27:36;;;;;;;;;;;;;;;-144.99;100.00;52472.56;5412061;26;19929;-69
2024/04/13 06:30:05;;;;;;;;;;;;;;;-144.99;100.00;52484.78;5411384;26;19936;-69
2024/04/13 06:32:31;;;;;;;;;;;;;;;-144.99;100.00;52439.94;5409966;26;19929;-69
2024/04/13 06:35:02;;;;;;;;;;;;;;;-144.99;100.00;52468.47;5410413;26;19937;-69
2024/04/13 06:37:29;;;;;;;;;;;;;;;-144.99;100.00;52497.00;5411633;26;19967;-69
2024/04/13 06:39:58;;;;;;;;;;;;;;;-144.99;100.00;52439.94;5410987;26;19929;-69
2024/04/13 06:42:25;;;;;;;;;;;;;;;-144.99;100.00;52435.88;5411194;26;19929;-66
2024/04/13 06:44:53;;;;;;;;;;;;;;;-144.99;100.00;52482.75;5410580;26;19929;-66
2024/04/13 06:47:19;;;;;;;;;;;;;;;-144.99;100.00;52419.56;5411375;26;20321;-66
2024/04/13 06:49:48;;;;;;;;;;;;;;;-144.99;100.00;52460.31;5410640;26;19940;-67
2024/04/13 06:52:17;;;;;;;;;;;;;;;-144.99;100.00;52444.03;5410979;26;19929;-66
2024/04/13 06:54:46;;;;;;;;;;;;;;;-144.99;100.00;52431.78;5410058;26;19929;-67
2024/04/13 06:57:12;;;;;;;;;;;;;;;-144.99;100.00;52431.78;5411219;26;19998;-67
2024/04/13 06:59:41;;;;;;;;;;;;;;;-144.99;100.00;52450.13;5411077;26;19937;-66
2024/04/13 07:02:07;;;;;;;;;;;;;;;-144.99;100.00;52468.47;5400750;26;19936;-66
2024/04/13 07:04:35;;;;;;;;;;;;;;;-144.99;100.00;52492.94;5411478;26;20002;-66
2024/04/13 07:07:01;;;;;;;;;;;;;;;-144.99;100.00;52423.63;5412784;26;20639;-66
2024/04/13 07:09:32;;;;;;;;;;;;;;;-144.99;100.00;52450.13;5412412;26;19940;-66
2024/04/13 07:12:02;;;;;;;;;;;;;;;-144.99;100.00;52448.09;5410565;26;19929;-67
2024/04/13 07:14:30;;;;;;;;;;;;;;;-144.99;100.00;52435.88;5412180;26;19940;-67
2024/04/13 07:16:57;;;;;;;;;;;;;;;-144.99;99.81;52476.63;5412462;26;19937;-67
2024/04/13 07:19:26;;;;;;;;;;;;;;;-144.99;99.55;52417.53;5412738;26;19948;-67
2024/04/13 07:21:52;;;;;;;;;;;;;;;-144.99;99.43;52427.72;5412392;26;20223;-67
2024/04/13 07:24:20;;;;;;;;;;;;;;;-144.99;99.25;52450.13;5411207;26;19929;-67
2024/04/13 07:26:49;;;;;;;;;;;;;;;-144.99;98.68;52444.03;5412265;26;19929;-67
2024/04/13 07:29:17;;;;;;;;;;;;;;;-144.99;98.45;52411.41;5411997;26;19929;-66
2024/04/13 07:31:43;;;;;;;;;;;;;;;-144.99;98.37;52409.38;5411652;26;19928;-67
2024/04/13 07:34:11;;;;;;;;;;;;;;;-144.99;97.54;52452.16;5410401;26;19936;-68
2024/04/13 07:36:37;;;;;;;;;;;;;;;-144.99;96.82;52444.03;5411053;26;20040;-68
2024/04/13 07:39:06;;;;;;;;;;;;;;;-144.99;96.50;52441.97;5411278;26;19957;-68
2024/04/13 07:41:32;;;;;;;;;;;;;;;-144.99;96.19;52407.31;5411049;26;19929;-68
2024/04/13 07:44:03;;;;;;;;;;;;;;;-144.99;95.30;52415.47;5410431;26;19935;-68
2024/04/13 07:46:29;;;;;;;;;;;;;;;-144.99;94.78;52407.31;5411506;26;19936;-68
2024/04/13 07:48:57;;;;;;;;;;;;;;;-144.99;95.00;52431.78;5410502;26;19929;-68
2024/04/13 07:51:23;;;;;;;;;;;;;;;-144.99;94.34;52415.47;5410375;26;20232;-67
2024/04/13 07:53:52;;;;;;;;;;;;;;;-144.99;94.95;52448.09;5407192;26;19935;-68
2024/04/13 07:56:17;;;;;;;;;;;;;;;-144.99;94.71;52472.56;5408254;26;19928;-68
2024/04/13 07:58:46;;;;;;;;;;;;;;;-144.99;94.17;52395.09;5407172;26;20001;-67
2024/04/13 08:01:15;;;;;;;;;;;;;;;-144.99;94.89;52452.16;5410896;26;19929;-68
2024/04/13 08:03:44;;;;;;;;;;;;;;;-144.99;95.14;52452.16;5410269;26;20267;-68
2024/04/13 08:06:09;;;;;;;;;;;;;;;-144.99;93.76;52427.72;5396240;26;19929;-68
2024/04/13 08:08:38;;;;;;;;;;;;;;;-144.99;92.98;52452.16;5407532;26;20316;-68
2024/04/13 08:11:06;;;;;;;;;;;;;;;-144.99;91.58;52407.31;5410188;26;19933;-68
2024/04/13 08:13:35;;;;;;;;;;;;;;;-144.99;91.72;52423.63;5409684;26;19929;-67
2024/04/13 08:16:03;;;;;;;;;;;;;;;-144.99;92.14;52407.31;5410481;26;19940;-68
2024/04/13 08:18:34;;;;;;;;;;;;;;;-144.99;92.85;52419.56;5410016;26;20270;-67
2024/04/13 08:21:00;;;;;;;;;;;;;;;-144.99;92.52;52431.78;5409737;26;19929;-68
2024/04/13 08:23:28;;;;;;;;;;;;;;;-144.99;91.72;52411.41;5408593;26;19952;-67
2024/04/13 08:25:54;;;;;;;;;;;;;;;-144.99;91.74;52407.31;5410019;26;19932;-67
2024/04/13 08:28:23;;;;;;;;;;;;;;;-144.99;90.32;52382.88;5410183;26;19933;-68
2024/04/13 08:30:49;;;;;;;;;;;;;;;-144.99;89.94;52403.25;5410528;26;19982;-68
2024/04/13 08:33:17;;;;;;;;;;;;;;;-144.99;89.12;52427.72;5409443;26;19937;-67
2024/04/13 08:35:46;;;;;;;;;;;;;;;-144.99;88.00;52413.44;5410003;26;19929;-68
2024/04/13 08:38:14;;;;;;;;;;;;;;;-144.99;87.46;52378.78;5409890;26;19929;-68
2024/04/13 08:40:41;;;;;;;;;;;;;;;-144.99;87.26;52395.09;5410488;26;19933;-68
2024/04/13 08:43:10;;;;;;;;;;;;;;;-144.99;86.01;52391.03;5410608;26;19936;-68
2024/04/13 08:45:36;;;;;;;;;;;;;;;-144.99;85.47;52407.31;5410930;26;20290;-68
2024/04/13 08:48:06;;;;;;;;;;;;;;;-144.99;85.58;52380.84;5410070;26;19948;-67
2024/04/13 08:50:34;;;;;;;;;;;;;;;-144.99;86.30;52454.22;5410399;26;19935;-67
2024/04/13 08:53:05;;;;;;;;;;;;;;;-144.99;85.50;52362.50;5410139;26;19936;-67
2024/04/13 08:55:35;;;;;;;;;;;;;;;-144.99;83.96;52395.09;5410177;26;20253;-67
2024/04/13 08:58:01;;;;;;;;;;;;;;;-144.99;83.73;52415.47;5407641;26;19929;-67
2024/04/13 09:00:31;;;;;;;;;;;;;;;-144.99;83.27;52386.94;5409828;26;19929;-67
2024/04/13 09:02:56;;;;;;;;;;;;;;;-144.99;83.69;52395.09;5409572;26;20043;-67
2024/04/13 09:05:27;;;;;;;;;;;;;;;-144.99;82.89;52411.41;5409418;26;19941;-67
2024/04/13 09:07:55;;;;;;;;;;;;;;;-144.99;82.10;52386.94;5409896;26;20271;-68
2024/04/13 09:10:26;;;;;;;;;;;;;;;-144.99;82.18;52364.53;5409642;26;20113;-68
2024/04/13 09:12:52;;;;;;;;;;;;;;;-144.99;81.44;52386.94;5409435;26;19986;-67
2024/04/13 09:15:21;;;;;;;;;;;;;;;-144.99;79.30;52399.19;5409382;26;20346;-67
2024/04/13 09:17:48;;;;;;;;;;;;;;;-144.99;79.20;52380.84;5410263;26;20121;-67
2024/04/13 09:20:17;;;;;;;;;;;;;;;-144.99;78.82;52391.03;5409723;26;20302;-66
2024/04/13 09:22:43;;;;;;;;;;;;;;;-144.99;78.36;52370.63;5409420;26;20332;-67
2024/04/13 09:25:21;;;;;;;;;;;;;;;-144.99;78.55;52376.75;5408691;26;19959;-67
2024/04/13 09:28:00;;;;;;;;;;;;;;;-144.99;78.84;52407.31;5409922;26;19929;-67
2024/04/13 09:30:29;;;;;;;;;;;;;;;-144.99;79.33;52386.94;5399782;26;19929;-67
2024/04/13 09:32:59;;;;;;;;;;;;;;;-144.99;78.93;52340.06;5409262;26;19936;-66
2024/04/13 09:35:27;;;;;;;;;;;;;;;-144.99;79.35;52321.72;5409083;26;19944;-67
2024/04/13 09:37:55;;;;;;;;;;;;;;;-144.99;77.73;52391.03;5408661;26;19936;-67
2024/04/13 09:40:24;;;;;;;;;;;;;;;-144.99;76.86;52342.09;5409024;26;20035;-67
2024/04/13 09:42:50;;;;;;;;;;;;;;;-144.99;76.02;52329.88;5409340;26;20116;-67
2024/04/13 09:45:21;;;;;;;;;;;;;;;-144.99;76.40;52338.03;5409245;26;20335;-67
2024/04/13 09:47:47;;;;;;;;;;;;;;;-144.99;74.17;52305.41;5409773;26;19936;-66
2024/04/13 09:50:16;;;;;;;;;;;;;;;-144.99;72.77;52366.56;5409264;26;19941;-66
2024/04/13 09:52:42;;;;;;;;;;;;;;;-144.99;71.71;52366.56;5409435;26;20296;-66
2024/04/13 09:55:12;;;;;;;;;;;;;;;-144.99;71.11;52342.09;5395105;26;20263;-69
2024/04/13 09:57:38;;;;;;;;;;;;;;;-144.99;70.76;52338.03;5409649;26;20328;-67
2024/04/13 10:00:07;;;;;;;;;;;;;;;-144.99;70.13;52342.09;5408426;26;19929;-67
2024/04/13 10:02:38;;;;;;;;;;;;;;;-144.99;70.48;52336.00;5409212;26;20109;-67
2024/04/13 10:05:06;;;;;;;;;;;;;;;-144.99;70.32;52321.72;5408597;26;19933;-67
2024/04/13 10:07:32;;;;;;;;;;;;;;;-144.99;70.10;52305.41;5409589;26;20370;-68
2024/04/13 10:10:03;;;;;;;;;;;;;;;-144.99;69.29;52342.09;5409357;26;19929;-68
2024/04/13 10:12:31;;;;;;;;;;;;;;;-144.99;69.58;52307.47;5399840;26;19955;-67
2024/04/13 10:15:01;;;;;;;;;;;;;;;-144.99;69.65;52350.25;5408648;26;19929;-66
2024/04/13 10:17:27;;;;;;;;;;;;;;;-144.99;70.09;52309.50;5410126;26;20017;-68
2024/04/13 10:19:58;;;;;;;;;;;;;;;-144.99;69.71;52323.75;5408722;26;19929;-67
2024/04/13 10:22:25;;;;;;;;;;;;;;;-144.99;69.61;52338.03;5409754;26;19936;-67
2024/04/13 10:24:54;;;;;;;;;;;;;;;-144.99;70.55;52366.56;5408315;26;19936;-68
2024/04/13 10:27:21;;;;;;;;;;;;;;;-144.99;71.42;52346.19;5409590;26;20030;-67
2024/04/13 10:29:51;;;;;;;;;;;;;;;-144.99;72.04;52329.88;5409184;26;19936;-67
2024/04/13 10:32:19;;;;;;;;;;;;;;;-144.99;71.31;52413.44;5409227;26;19929;-68
2024/04/13 10:34:48;;;;;;;;;;;;;;;-144.99;70.78;52362.50;5408006;26;20001;-67
2024/04/13 10:37:27;;;;;;;;;;;;;;;-144.99;69.98;52333.94;5409292;26;19936;-68
2024/04/13 10:39:56;;;;;;;;;;;;;;;-144.99;68.70;52370.63;5410390;26;19929;-68
2024/04/13 10:42:32;;;;;;;;;;;;;;;-144.99;69.56;52354.34;5410867;26;19940;-68
2024/04/13 10:45:02;;;;;;;;;;;;;;;-144.99;70.50;52366.56;5410374;26;20288;-68
2024/04/13 10:47:29;;;;;;;;;;;;;;;-144.99;69.53;52407.31;5409662;26;19929;-68
2024/04/13 10:49:59;;;;;;;;;;;;;;;-144.99;69.68;52358.41;5408521;26;19929;-66
2024/04/13 10:52:29;;;;;;;;;;;;;;;-144.99;70.41;52362.50;5412500;26;19940;-68
2024/04/13 10:54:58;;;;;;;;;;;;;;;-144.99;70.31;52354.34;5411888;26;20351;-68
2024/04/13 10:57:25;;;;;;;;;;;;;;;-144.99;69.79;52382.88;5412966;26;19937;-68
2024/04/13 10:59:54;;;;;;;;;;;;;;;-144.99;69.76;52364.53;5412066;26;19929;-68
2024/04/13 11:02:20;;;;;;;;;;;;;;;-144.99;69.20;52350.25;5412865;26;20216;-67
2024/04/13 11:04:49;;;;;;;;;;;;;;;-144.99;67.16;52244.28;5411351;26;19940;-67
2024/04/13 11:07:15;;;;;;;;;;;;;;;-144.99;65.34;52244.28;5412293;26;20061;-69
2024/04/13 11:09:46;;;;;;;;;;;;;;;-144.99;64.77;52227.97;5411707;26;20278;-66
2024/04/13 11:12:13;;;;;;;;;;;;;;;-144.99;64.96;52244.28;5412088;26;19936;-66
2024/04/13 11:14:41;;;;;;;;;;;;;;;-144.99;64.53;52346.19;5411633;26;19933;-67
2024/04/13 11:17:08;;;;;;;;;;;;;;;-144.99;64.44;52262.63;5410018;26;19933;-67
2024/04/13 11:19:36;;;;;;;;;;;;;;;-144.99;64.98;52307.47;5411431;26;20048;-67
2024/04/13 11:22:03;;;;;;;;;;;;;;;-144.99;64.35;52219.81;5411847;26;19936;-67
2024/04/13 11:24:29;;;;;;;;;;;;;;;-144.99;63.23;52195.34;5411129;26;19929;-68
2024/04/13 11:27:00;;;;;;;;;;;;;;;-144.99;62.71;52195.34;5411584;26;20164;-67
2024/04/13 11:29:26;;;;;;;;;;;;;;;-144.99;62.09;52223.88;5412482;26;20367;-67
2024/04/13 11:31:56;;;;;;;;;;;;;;;-144.99;60.97;52240.19;5411379;26;19936;-67
2024/04/13 11:34:22;;;;;;;;;;;;;;;-144.99;61.00;52227.97;5411737;26;19944;-67
2024/04/13 11:36:51;;;;;;;;;;;;;;;-144.99;60.76;52232.03;5412422;26;19941;-68
2024/04/13 11:39:16;;;;;;;;;;;;;;;-144.99;60.76;52280.97;5412294;26;20017;-67
2024/04/13 11:41:45;;;;;;;;;;;;;;;-144.99;61.37;52309.50;5393009;26;19964;-67
2024/04/13 11:44:13;;;;;;;;;;;;;;;-144.99;60.91;52317.66;5400562;26;19929;-66
2024/04/13 11:46:42;;;;;;;;;;;;;;;-144.99;60.52;52297.25;5412273;26;20252;-75
2024/04/13 11:49:08;;;;;;;;;;;;;;;-144.99;61.39;52289.13;5407936;26;19936;-67
2024/04/13 11:51:37;;;;;;;;;;;;;;;-144.99;61.16;52329.88;5411763;26;19929;-67
2024/04/13 11:54:03;;;;;;;;;;;;;;;-144.99;61.56;52305.41;5412308;26;19929;-67
2024/04/13 11:56:32;;;;;;;;;;;;;;;-144.99;61.75;52325.81;5412068;26;19929;-68
2024/04/13 11:58:59;;;;;;;;;;;;;;;-144.99;61.67;52329.88;5410882;26;19929;-67
2024/04/13 12:01:30;;;;;;;;;;;;;;;-144.99;60.78;52325.81;5411437;26;20006;-67
2024/04/13 12:03:56;;;;;;;;;;;;;;;-144.99;61.13;52319.69;5411546;26;19998;-67
2024/04/13 12:06:24;;;;;;;;;;;;;;;-144.99;60.79;52317.66;5410843;26;20048;-67
2024/04/13 12:08:50;;;;;;;;;;;;;;;-144.99;61.40;52293.19;5411610;26;19929;-68
2024/04/13 12:11:19;;;;;;;;;;;;;;;-144.99;59.77;52333.94;5411579;26;19997;-67
2024/04/13 12:13:44;;;;;;;;;;;;;;;-144.99;60.27;52354.34;5411534;26;19955;-67
2024/04/13 12:16:13;;;;;;;;;;;;;;;-144.99;59.92;52256.50;5411415;26;19941;-67
2024/04/13 12:18:41;;;;;;;;;;;;;;;-144.99;59.42;52297.25;5411933;26;19929;-68
2024/04/13 12:21:10;;;;;;;;;;;;;;;-144.99;58.56;52297.25;5410885;26;19940;-68
2024/04/13 12:23:36;;;;;;;;;;;;;;;-144.99;58.64;52280.97;5410961;26;19928;-67